Governador Eugenio Barros, Brazil
Current Conditions -  °F | °C
As of 12:00 PM on Saturday 27 Dec 2014 (Local Time) from SBTE Reporting Station
Scattered Clouds Scattered Clouds  
Wind Chill: 35°   Ceiling: Unl
Heat Index: 36°   Visibility: 6mi
Dew Point: 17°   Wind: 5mph
Humidity: 34%   Direction: 120°ESE
Pressure: 29.83"   Gusts: NA
Location:  5.32°S, 44.25°W
Report Text: SBTE 271500Z 12004KT 9999 SCT030 35/17 Q1010
Loading
Personal Weather Stations






























Interactive Weather Map New forecast layout! Learn more

10-Day Weather Forecast

Advertisements
Track Severe Weather on mobile